createdAt,value
2022-08-25T00:00:14.558Z,18.69
2022-08-25T00:02:55.561Z,18.69
2022-08-25T00:05:29.465Z,18.68
2022-08-25T00:08:01.852Z,18.66
2022-08-25T00:10:30.278Z,18.65
2022-08-25T00:12:57.277Z,18.63
2022-08-25T00:15:24.688Z,18.56
2022-08-25T00:17:52.638Z,18.55
2022-08-25T00:20:20.693Z,18.49
2022-08-25T00:22:49.088Z,18.50
2022-08-25T00:25:17.563Z,18.49
2022-08-25T00:27:45.843Z,18.52
2022-08-25T00:30:16.769Z,18.49
2022-08-25T00:32:55.294Z,18.47
2022-08-25T00:35:26.968Z,18.44
2022-08-25T00:37:54.234Z,18.44
2022-08-25T00:40:23.678Z,18.39
2022-08-25T00:42:50.838Z,18.38
2022-08-25T00:45:19.042Z,18.42
2022-08-25T00:47:46.430Z,18.36
2022-08-25T00:50:14.218Z,18.30
2022-08-25T00:52:51.292Z,18.28
2022-08-25T00:55:31.026Z,18.25
2022-08-25T00:58:18.552Z,18.21
2022-08-25T01:00:52.928Z,18.20
2022-08-25T01:03:23.899Z,18.19
2022-08-25T01:06:05.153Z,18.19
2022-08-25T01:08:34.089Z,18.18
2022-08-25T01:11:07.045Z,18.18
2022-08-25T01:13:49.440Z,18.15
2022-08-25T01:16:17.892Z,18.13
2022-08-25T01:18:57.158Z,18.13
2022-08-25T01:21:30.534Z,18.08
2022-08-25T01:24:00.877Z,18.05
2022-08-25T01:26:34.167Z,18.05
2022-08-25T01:29:22.832Z,18.06
2022-08-25T01:31:59.180Z,18.03
2022-08-25T01:34:32.821Z,18.02
2022-08-25T01:37:01.394Z,17.99
2022-08-25T01:39:38.933Z,17.96
2022-08-25T01:42:34.728Z,17.94
2022-08-25T01:45:01.861Z,17.94
2022-08-25T01:47:28.985Z,17.92
2022-08-25T01:49:56.091Z,17.92
2022-08-25T01:52:59.868Z,17.89
2022-08-25T01:55:27.603Z,17.89
2022-08-25T01:57:55.679Z,17.90
2022-08-25T02:00:24.744Z,17.86
2022-08-25T02:02:54.172Z,17.81
2022-08-25T02:05:23.872Z,17.84
2022-08-25T02:07:51.182Z,17.84
2022-08-25T02:10:18.321Z,17.79
2022-08-25T02:12:45.392Z,17.76
2022-08-25T02:15:12.608Z,17.76
2022-08-25T02:17:39.652Z,17.72
2022-08-25T02:20:11.134Z,17.68
2022-08-25T02:22:38.225Z,17.69
2022-08-25T02:25:08.412Z,17.67
2022-08-25T02:27:35.711Z,17.68
2022-08-25T02:30:05.458Z,17.65
2022-08-25T02:32:32.456Z,17.64
2022-08-25T02:34:59.618Z,17.60
2022-08-25T02:37:26.837Z,17.59
2022-08-25T02:39:53.898Z,17.60
2022-08-25T02:42:22.337Z,17.61
2022-08-25T02:44:49.347Z,17.59
2022-08-25T02:47:16.880Z,17.59
2022-08-25T02:49:44.691Z,17.57
2022-08-25T02:52:11.635Z,17.54
2022-08-25T02:54:38.727Z,17.54
2022-08-25T02:57:05.708Z,17.49
2022-08-25T02:59:32.950Z,17.49
2022-08-25T03:01:59.992Z,17.49
2022-08-25T03:04:27.525Z,17.47
2022-08-25T03:06:54.848Z,17.47
2022-08-25T03:09:22.621Z,17.47
2022-08-25T03:11:49.687Z,17.47
2022-08-25T03:14:16.778Z,17.47
2022-08-25T03:16:46.258Z,17.49
2022-08-25T03:19:14.365Z,17.50
2022-08-25T03:21:41.660Z,17.48
2022-08-25T03:24:08.998Z,17.47
2022-08-25T03:26:54.389Z,17.51
2022-08-25T03:29:31.718Z,17.48
2022-08-25T03:32:01.243Z,17.43
2022-08-25T03:34:30.842Z,17.43
2022-08-25T03:36:59.929Z,17.43
2022-08-25T03:39:29.154Z,17.41
2022-08-25T03:41:56.315Z,17.39
2022-08-25T03:44:23.815Z,17.35
2022-08-25T03:46:52.954Z,17.32
2022-08-25T03:49:24.705Z,17.30
2022-08-25T03:51:55.049Z,17.30
2022-08-25T03:54:26.468Z,17.28
2022-08-25T03:56:54.184Z,17.31
2022-08-25T03:59:21.680Z,17.29
2022-08-25T04:01:54.138Z,17.29
2022-08-25T04:04:23.208Z,17.26
2022-08-25T04:06:50.089Z,17.25
2022-08-25T04:09:17.296Z,17.24
2022-08-25T04:11:44.472Z,17.25
2022-08-25T04:14:13.795Z,17.24
2022-08-25T04:16:45.121Z,17.24
2022-08-25T04:19:13.249Z,17.22
2022-08-25T04:21:42.591Z,17.28
2022-08-25T04:24:13.783Z,17.26
2022-08-25T04:26:50.945Z,17.26
2022-08-25T04:29:23.990Z,17.25
2022-08-25T04:31:53.977Z,17.25
2022-08-25T04:34:30.690Z,17.26
2022-08-25T04:37:04.012Z,17.28
2022-08-25T04:39:32.228Z,17.36
2022-08-25T04:42:00.947Z,17.40
2022-08-25T04:44:30.665Z,17.42
2022-08-25T04:46:59.527Z,17.44
2022-08-25T04:49:26.774Z,17.49
2022-08-25T04:51:54.101Z,17.53
2022-08-25T04:54:23.805Z,17.51
2022-08-25T04:56:54.651Z,17.59
2022-08-25T04:59:29.937Z,17.59
2022-08-25T05:02:03.076Z,17.66
2022-08-25T05:04:33.620Z,17.72
2022-08-25T05:07:02.905Z,17.74
2022-08-25T05:09:32.628Z,17.78
2022-08-25T05:12:02.848Z,17.84
2022-08-25T05:14:32.135Z,17.83
2022-08-25T05:16:59.570Z,17.87
2022-08-25T05:19:27.489Z,17.93
2022-08-25T05:21:55.080Z,17.98
2022-08-25T05:24:26.391Z,18.01
2022-08-25T05:26:54.128Z,18.08
2022-08-25T05:29:21.545Z,18.25
2022-08-25T05:31:50.751Z,18.39
2022-08-25T05:34:19.780Z,18.46
2022-08-25T05:36:48.637Z,18.45
2022-08-25T05:39:15.849Z,18.47
2022-08-25T05:41:43.021Z,18.50
2022-08-25T05:44:10.406Z,18.54
2022-08-25T05:46:37.435Z,18.53
2022-08-25T05:49:04.614Z,18.37
2022-08-25T05:51:31.643Z,18.38
2022-08-25T05:53:58.712Z,18.39
2022-08-25T05:56:25.771Z,18.43
2022-08-25T05:58:52.873Z,18.44
2022-08-25T06:01:47.497Z,18.42
2022-08-25T06:04:18.141Z,18.37
2022-08-25T06:06:45.349Z,18.40
2022-08-25T06:09:12.911Z,18.35
2022-08-25T06:11:41.925Z,18.31
2022-08-25T06:14:11.323Z,18.35
2022-08-25T06:16:40.516Z,18.45
2022-08-25T06:19:11.147Z,18.38
2022-08-25T06:21:39.776Z,18.37
2022-08-25T06:24:15.276Z,18.31
2022-08-25T06:26:44.243Z,18.30
2022-08-25T06:29:14.249Z,18.31
2022-08-25T06:31:43.044Z,18.32
2022-08-25T06:34:13.008Z,18.36
2022-08-25T06:36:41.114Z,18.42
2022-08-25T06:39:10.578Z,18.52
2022-08-25T06:41:38.876Z,18.55
2022-08-25T06:44:06.394Z,18.55
2022-08-25T06:46:36.616Z,18.60
2022-08-25T06:49:06.901Z,18.60
2022-08-25T06:51:36.242Z,18.60
2022-08-25T06:54:07.106Z,18.49
2022-08-25T06:56:35.972Z,18.56
2022-08-25T06:59:06.315Z,18.60
2022-08-25T07:01:35.104Z,18.62
2022-08-25T07:04:10.333Z,18.64
2022-08-25T07:06:41.150Z,18.70
2022-08-25T07:09:11.933Z,18.76
2022-08-25T07:11:43.117Z,18.85
2022-08-25T07:14:16.382Z,18.97
2022-08-25T07:16:49.359Z,19.03
2022-08-25T07:19:21.013Z,18.98
2022-08-25T07:21:54.379Z,19.00
2022-08-25T07:24:22.868Z,19.05
2022-08-25T07:26:51.631Z,19.06
2022-08-25T07:29:32.712Z,19.17
2022-08-25T07:32:02.888Z,19.24
2022-08-25T07:34:52.457Z,19.26
2022-08-25T07:37:45.470Z,19.38
2022-08-25T07:40:23.431Z,19.57
2022-08-25T07:42:56.641Z,19.54
2022-08-25T07:45:30.801Z,19.40
2022-08-25T07:48:06.420Z,19.47
2022-08-25T07:50:38.932Z,19.58
2022-08-25T07:53:07.141Z,19.55
2022-08-25T07:55:39.047Z,19.59
2022-08-25T07:58:09.987Z,19.67
2022-08-25T08:00:42.271Z,19.69
2022-08-25T08:03:19.932Z,19.78
2022-08-25T08:05:58.188Z,19.90
2022-08-25T08:08:25.239Z,19.93
2022-08-25T08:11:09.649Z,19.89
2022-08-25T08:13:41.153Z,20.01
2022-08-25T08:16:17.733Z,19.96
2022-08-25T08:18:46.799Z,19.97
2022-08-25T08:21:30.670Z,20.13
2022-08-25T08:23:59.314Z,20.31
2022-08-25T08:26:48.360Z,20.43
2022-08-25T08:29:16.526Z,20.43
2022-08-25T08:31:48.496Z,20.48
2022-08-25T08:34:17.251Z,20.69
2022-08-25T08:36:45.284Z,20.73
2022-08-25T08:39:12.957Z,20.77
2022-08-25T08:43:04.311Z,21.00
2022-08-25T08:45:44.910Z,21.21
2022-08-25T08:48:42.127Z,21.45
2022-08-25T08:51:59.477Z,21.70
2022-08-25T08:54:41.260Z,21.83
2022-08-25T08:57:28.187Z,21.79
2022-08-25T09:00:06.817Z,22.00
2022-08-25T09:02:51.576Z,22.04
2022-08-25T09:05:28.796Z,22.47
2022-08-25T09:08:06.494Z,22.15
2022-08-25T09:11:38.403Z,22.34
2022-08-25T09:15:01.367Z,22.36
2022-08-25T09:18:39.035Z,22.29
2022-08-25T09:21:33.045Z,22.50
2022-08-25T09:24:21.430Z,22.58
2022-08-25T09:27:21.748Z,23.02
2022-08-25T09:30:16.247Z,23.49
2022-08-25T09:32:50.395Z,23.76
2022-08-25T09:35:31.884Z,23.96
2022-08-25T09:38:10.250Z,24.12
2022-08-25T09:40:45.288Z,24.43
2022-08-25T09:43:28.967Z,24.85
2022-08-25T09:46:29.912Z,24.96
2022-08-25T09:49:12.995Z,25.05
2022-08-25T09:51:42.836Z,25.17
2022-08-25T09:54:13.142Z,25.04
2022-08-25T09:57:02.172Z,24.88
2022-08-25T09:59:36.827Z,24.80
2022-08-25T10:02:28.989Z,24.74
2022-08-25T10:04:57.426Z,24.94
2022-08-25T10:08:00.353Z,25.31
2022-08-25T10:10:44.972Z,25.37
2022-08-25T10:13:51.412Z,25.63
2022-08-25T10:16:35.575Z,25.31
2022-08-25T10:19:30.476Z,25.39
2022-08-25T10:22:11.638Z,25.36
2022-08-25T10:24:44.000Z,25.51
2022-08-25T10:27:16.801Z,25.37
2022-08-25T10:30:08.239Z,25.65
2022-08-25T10:33:10.118Z,26.14
2022-08-25T10:36:29.584Z,25.98
2022-08-25T10:39:02.136Z,26.17
2022-08-25T10:42:17.719Z,25.52
2022-08-25T10:45:32.550Z,25.52
2022-08-25T10:48:34.684Z,25.55
2022-08-25T10:51:18.869Z,25.25
2022-08-25T10:54:07.716Z,25.30
2022-08-25T10:56:49.663Z,25.44
2022-08-25T11:00:01.747Z,25.53
2022-08-25T11:03:13.518Z,25.51
2022-08-25T11:05:59.736Z,25.48
2022-08-25T11:08:52.781Z,25.52
2022-08-25T11:11:52.493Z,25.73
2022-08-25T11:14:43.054Z,25.79
2022-08-25T11:17:26.193Z,25.75
2022-08-25T11:20:12.311Z,25.65
2022-08-25T11:23:17.435Z,25.65
2022-08-25T11:25:54.176Z,25.57
2022-08-25T11:28:44.742Z,25.82
2022-08-25T11:31:17.469Z,26.16
2022-08-25T11:33:45.121Z,26.15
2022-08-25T11:36:34.098Z,26.00
2022-08-25T11:39:34.630Z,25.98
2022-08-25T11:42:58.298Z,26.02
2022-08-25T11:45:54.546Z,25.90
2022-08-25T11:49:04.658Z,25.81
2022-08-25T11:51:47.789Z,25.87
2022-08-25T11:54:43.652Z,25.82
2022-08-25T11:57:26.626Z,25.64
2022-08-25T11:59:53.787Z,25.46
2022-08-25T12:02:46.111Z,25.34
2022-08-25T12:05:19.324Z,25.56
2022-08-25T12:08:12.598Z,25.71
2022-08-25T12:11:11.385Z,25.98
2022-08-25T12:13:51.335Z,26.20
2022-08-25T12:16:36.014Z,26.41
2022-08-25T12:19:35.779Z,26.56
2022-08-25T12:22:03.266Z,26.47
2022-08-25T12:25:09.977Z,26.22
2022-08-25T12:28:27.301Z,26.32
2022-08-25T12:31:15.992Z,26.48
2022-08-25T12:34:12.498Z,26.45
2022-08-25T12:36:54.780Z,26.50
2022-08-25T12:39:36.293Z,26.70
2022-08-25T12:42:26.232Z,26.91
2022-08-25T12:45:24.698Z,26.84
2022-08-25T12:47:57.458Z,26.91
2022-08-25T12:50:29.394Z,26.72
2022-08-25T12:53:17.896Z,26.33
2022-08-25T12:56:16.357Z,26.39
2022-08-25T12:59:06.575Z,26.69
2022-08-25T13:02:07.831Z,26.91
2022-08-25T13:05:17.700Z,27.27
2022-08-25T13:08:33.714Z,27.41
2022-08-25T13:11:30.227Z,26.98
2022-08-25T13:14:18.366Z,26.75
2022-08-25T13:17:01.156Z,26.86
2022-08-25T13:19:34.597Z,27.27
2022-08-25T13:22:16.374Z,27.65
2022-08-25T13:24:50.952Z,27.85
2022-08-25T13:27:30.021Z,27.91
2022-08-25T13:30:03.802Z,27.58
2022-08-25T13:32:38.171Z,27.26
2022-08-25T13:35:32.531Z,27.45
2022-08-25T13:38:19.863Z,27.44
2022-08-25T13:40:47.271Z,27.46
2022-08-25T13:43:15.265Z,27.40
2022-08-25T13:45:50.377Z,27.43
2022-08-25T13:48:49.907Z,27.79
2022-08-25T13:51:31.055Z,28.06
2022-08-25T13:54:09.285Z,28.50
2022-08-25T13:56:42.724Z,28.75
2022-08-25T13:59:43.736Z,28.13
2022-08-25T14:02:50.987Z,27.74
2022-08-25T14:05:44.253Z,27.36
2022-08-25T14:08:41.115Z,26.93
2022-08-25T14:11:30.834Z,26.93
2022-08-25T14:14:08.611Z,27.52
2022-08-25T14:16:50.237Z,28.29
2022-08-25T14:19:25.169Z,28.68
2022-08-25T14:21:56.641Z,29.23
2022-08-25T14:24:24.673Z,29.79
2022-08-25T14:26:54.284Z,29.69
2022-08-25T14:29:22.333Z,29.30
2022-08-25T14:31:52.591Z,28.60
2022-08-25T14:34:29.642Z,28.13
2022-08-25T14:36:59.984Z,27.64
2022-08-25T14:39:29.111Z,27.78
2022-08-25T14:41:56.813Z,28.27
2022-08-25T14:44:27.590Z,29.16
2022-08-25T14:46:58.166Z,29.70
2022-08-25T14:49:41.295Z,30.55
2022-08-25T14:52:24.429Z,30.70
2022-08-25T14:54:51.401Z,30.27
2022-08-25T14:57:18.624Z,29.59
2022-08-25T14:59:46.330Z,28.94
2022-08-25T15:02:20.025Z,28.32
2022-08-25T15:05:00.891Z,27.50
2022-08-25T15:07:51.775Z,27.30
2022-08-25T15:10:21.786Z,27.27
2022-08-25T15:12:53.923Z,28.23
2022-08-25T15:15:21.840Z,29.47
2022-08-25T15:17:50.396Z,30.59
2022-08-25T15:20:17.818Z,31.54
2022-08-25T15:22:45.579Z,31.89
2022-08-25T15:25:12.650Z,31.07
2022-08-25T15:27:39.746Z,30.50
2022-08-25T15:30:09.156Z,30.10
2022-08-25T15:32:40.072Z,29.45
2022-08-25T15:35:07.980Z,29.82
2022-08-25T15:37:35.879Z,30.24
2022-08-25T15:40:06.937Z,30.51
2022-08-25T15:42:34.537Z,30.88
2022-08-25T15:45:02.829Z,31.33
2022-08-25T15:47:32.475Z,31.21
2022-08-25T15:50:15.251Z,31.34
2022-08-25T15:52:48.619Z,31.65
2022-08-25T15:55:18.094Z,31.77
2022-08-25T15:57:47.914Z,31.61
2022-08-25T16:00:19.167Z,31.28
2022-08-25T16:02:48.521Z,30.13
2022-08-25T16:05:16.484Z,29.41
2022-08-25T16:07:46.213Z,28.81
2022-08-25T16:10:19.494Z,28.42
2022-08-25T16:12:47.370Z,28.09
2022-08-25T16:15:14.420Z,27.87
2022-08-25T16:17:44.354Z,27.49
2022-08-25T16:20:17.259Z,27.30
2022-08-25T16:22:45.433Z,27.11
2022-08-25T16:25:14.866Z,26.92
2022-08-25T16:27:44.578Z,26.84
2022-08-25T16:30:17.486Z,26.81
2022-08-25T16:32:46.740Z,26.83
2022-08-25T16:35:14.841Z,26.68
2022-08-25T16:37:42.003Z,26.66
2022-08-25T16:40:14.856Z,26.52
2022-08-25T16:42:42.323Z,26.44
2022-08-25T16:45:10.071Z,26.43
2022-08-25T16:47:38.219Z,26.40
2022-08-25T16:50:11.528Z,26.36
2022-08-25T16:52:59.453Z,26.28
2022-08-25T16:55:39.518Z,26.27
2022-08-25T16:58:13.538Z,26.30
2022-08-25T17:00:43.842Z,26.18
2022-08-25T17:03:12.995Z,26.07
2022-08-25T17:05:43.336Z,25.92
2022-08-25T17:08:29.394Z,25.92
2022-08-25T17:11:18.049Z,25.92
2022-08-25T17:13:54.361Z,25.78
2022-08-25T17:16:30.070Z,25.69
2022-08-25T17:19:05.189Z,25.63
2022-08-25T17:21:38.159Z,25.58
2022-08-25T17:24:06.304Z,25.57
2022-08-25T17:26:33.627Z,25.45
2022-08-25T17:29:01.730Z,25.42
2022-08-25T17:31:30.826Z,25.35
2022-08-25T17:33:58.697Z,25.28
2022-08-25T17:36:27.394Z,25.20
2022-08-25T17:38:56.779Z,25.15
2022-08-25T17:41:24.611Z,25.12
2022-08-25T17:43:51.727Z,25.01
2022-08-25T17:46:18.876Z,24.99
2022-08-25T17:48:46.119Z,24.86
2022-08-25T17:51:16.294Z,24.68
2022-08-25T17:53:44.884Z,24.56
2022-08-25T17:56:22.262Z,24.46
2022-08-25T17:58:55.245Z,24.37
2022-08-25T18:01:33.887Z,24.32
2022-08-25T18:04:01.586Z,24.21
2022-08-25T18:06:31.011Z,24.20
2022-08-25T18:09:01.645Z,24.15
2022-08-25T18:11:30.081Z,24.13
2022-08-25T18:13:58.370Z,24.04
2022-08-25T18:16:26.652Z,23.95
2022-08-25T18:18:55.939Z,23.83
2022-08-25T18:21:30.449Z,23.83
2022-08-25T18:23:58.848Z,23.73
2022-08-25T18:26:26.769Z,23.69
2022-08-25T18:28:53.977Z,23.60
2022-08-25T18:31:21.047Z,23.54
2022-08-25T18:33:51.130Z,23.47
2022-08-25T18:36:21.075Z,23.42
2022-08-25T18:39:08.999Z,23.35
2022-08-25T18:41:42.512Z,23.23
2022-08-25T18:44:11.017Z,23.15
2022-08-25T18:46:39.924Z,23.09
2022-08-25T18:49:07.278Z,23.01
2022-08-25T18:51:36.318Z,22.98
2022-08-25T18:54:05.458Z,22.94
2022-08-25T18:56:35.165Z,22.87
2022-08-25T18:59:02.644Z,22.81
2022-08-25T19:01:30.163Z,22.75
2022-08-25T19:03:57.371Z,22.68
2022-08-25T19:06:24.436Z,22.63
2022-08-25T19:08:52.340Z,22.60
2022-08-25T19:11:22.391Z,22.52
2022-08-25T19:13:51.192Z,22.47
2022-08-25T19:16:42.491Z,22.43
2022-08-25T19:19:14.319Z,22.33
2022-08-25T19:21:42.781Z,22.26
2022-08-25T19:24:14.575Z,22.20
2022-08-25T19:26:44.787Z,22.13
2022-08-25T19:29:17.489Z,22.08
2022-08-25T19:31:49.006Z,22.02
2022-08-25T19:34:30.698Z,22.00
2022-08-25T19:37:04.345Z,21.93
2022-08-25T19:39:34.424Z,21.92
2022-08-25T19:42:03.217Z,21.88
2022-08-25T19:44:30.990Z,21.79
2022-08-25T19:46:58.862Z,21.75
2022-08-25T19:49:34.737Z,21.70
2022-08-25T19:52:10.781Z,21.66
2022-08-25T19:54:46.268Z,21.61
2022-08-25T19:57:20.805Z,21.55
2022-08-25T19:59:56.112Z,21.50
2022-08-25T20:02:28.307Z,21.46
2022-08-25T20:04:59.992Z,21.43
2022-08-25T20:07:31.911Z,21.40
2022-08-25T20:10:01.181Z,21.38
2022-08-25T20:12:29.979Z,21.31
2022-08-25T20:14:58.380Z,21.27
2022-08-25T20:17:28.249Z,21.24
2022-08-25T20:20:04.661Z,21.22
2022-08-25T20:22:34.297Z,21.17
2022-08-25T20:25:16.480Z,21.14
2022-08-25T20:27:53.629Z,21.10
2022-08-25T20:30:29.450Z,21.08
2022-08-25T20:32:58.389Z,21.04
2022-08-25T20:35:28.220Z,21.02
2022-08-25T20:37:58.479Z,20.99
2022-08-25T20:40:30.736Z,20.94
2022-08-25T20:43:03.614Z,20.89
2022-08-25T20:45:31.631Z,20.85
2022-08-25T20:47:59.497Z,20.83
2022-08-25T20:50:27.764Z,20.82
2022-08-25T20:52:56.900Z,20.80
2022-08-25T20:55:24.652Z,20.80
2022-08-25T20:57:53.769Z,20.79
2022-08-25T21:00:22.776Z,20.77
2022-08-25T21:02:52.819Z,20.78
2022-08-25T21:05:20.340Z,20.77
2022-08-25T21:07:47.436Z,20.73
2022-08-25T21:10:16.181Z,20.69
2022-08-25T21:15:17.955Z,20.61
2022-08-25T21:17:53.279Z,20.60
2022-08-25T21:20:24.448Z,20.60
2022-08-25T21:22:53.302Z,20.54
2022-08-25T21:25:21.793Z,20.49
2022-08-25T21:27:49.348Z,20.46
2022-08-25T21:30:17.865Z,20.41
2022-08-25T21:32:52.989Z,20.40
2022-08-25T21:35:23.610Z,20.37
2022-08-25T21:37:53.578Z,20.36
2022-08-25T21:40:23.175Z,20.31
2022-08-25T21:42:51.941Z,20.29
2022-08-25T21:45:20.910Z,20.28
2022-08-25T21:47:49.333Z,20.28
2022-08-25T21:50:16.855Z,20.25
2022-08-25T21:52:43.909Z,20.26
2022-08-25T21:55:15.851Z,20.24
2022-08-25T21:57:44.085Z,20.24
2022-08-25T22:00:13.337Z,20.22
2022-08-25T22:02:40.363Z,20.21
2022-08-25T22:05:12.172Z,20.18
2022-08-25T22:07:44.112Z,20.17
2022-08-25T22:10:17.649Z,20.18
2022-08-25T22:12:47.191Z,20.20
2022-08-25T22:15:17.832Z,20.19
2022-08-25T22:17:48.131Z,20.21
2022-08-25T22:20:18.573Z,20.24
2022-08-25T22:22:45.782Z,20.23
2022-08-25T22:25:13.192Z,20.21
2022-08-25T22:27:40.406Z,20.23
2022-08-25T22:30:08.902Z,20.23
2022-08-25T22:32:36.118Z,20.22
2022-08-25T22:35:03.779Z,20.19
2022-08-25T22:37:31.090Z,20.19
2022-08-25T22:40:02.595Z,20.21
2022-08-25T22:42:30.077Z,20.22
2022-08-25T22:44:57.111Z,20.23
2022-08-25T22:47:24.177Z,20.23
2022-08-25T22:49:55.478Z,20.22
2022-08-25T22:52:26.208Z,20.21
2022-08-25T22:55:01.651Z,20.23
2022-08-25T22:57:28.893Z,20.21
2022-08-25T22:59:56.748Z,20.18
2022-08-25T23:02:23.753Z,20.14
2022-08-25T23:04:51.858Z,20.12
2022-08-25T23:07:24.193Z,20.12
2022-08-25T23:09:51.630Z,20.16
2022-08-25T23:12:19.543Z,20.18
2022-08-25T23:14:50.339Z,20.23
2022-08-25T23:17:18.310Z,20.24
2022-08-25T23:19:46.133Z,20.26
2022-08-25T23:22:16.308Z,20.24
2022-08-25T23:24:51.789Z,20.24
2022-08-25T23:27:21.932Z,20.25
2022-08-25T23:29:50.386Z,20.26
2022-08-25T23:32:19.103Z,20.25
2022-08-25T23:34:47.435Z,20.25
2022-08-25T23:37:18.490Z,20.24
2022-08-25T23:39:50.030Z,20.16
2022-08-25T23:42:20.734Z,20.13
2022-08-25T23:44:49.676Z,20.11
2022-08-25T23:47:18.782Z,20.08
2022-08-25T23:49:48.275Z,20.05
2022-08-25T23:52:17.527Z,20.04
2022-08-25T23:54:47.424Z,20.01
2022-08-25T23:57:15.018Z,19.96
2022-08-25T23:59:42.306Z,19.92
